Surface/Precipitation History
11/21/2014 16:40  to  11/22/2014 16:40
Change End Date:
Date/Time
(MST)
Sf
Temp Chem Water Layer Surface Precipitation
Sf Sub Frz Factor Pct Depth IcePct Cond Salin Type Intens Accum Rate
11/22/2014 16:21 Dry 30.0F 31F - - - - - 0 mhos 41 Snow Slight 0.14 in 0.0 iph
11/22/2014 16:20 Ice Warning 30.0F 32F 32F 5 0% - 98% 0 mhos 41 Snow Slight 0.14 in 0.0 iph
11/22/2014 16:10 Dry 29.8F 32F - - - - - 0 mhos 46 Snow Slight 0.14 in 0.0 iph
11/22/2014 16:10 Dry 30.0F 32F - - - - - 0 mhos 46 Snow Slight 0.14 in 0.0 iph
11/22/2014 16:00 Ice Warning 29.8F 32F 32F 5 0% - 98% 0 mhos 47 Snow Slight 0.14 in 0.0 iph
11/22/2014 15:51 Ice Warning 30.4F 32F 32F 5 0% - 97% 0 mhos 44 Snow Slight 0.14 in 0.0 iph
11/22/2014 15:50 Ice Warning 30.6F 32F 32F 5 0% - 97% 0 mhos 43 Snow Slight 0.14 in 0.0 iph
11/22/2014 15:41 Ice Warning 30.6F 32F 32F 5 0% - 97% 0 mhos 43 Snow Slight 0.14 in 0.0 iph
11/22/2014 15:40 Ice Warning 30.6F 32F 32F 5 0% - 97% 0 mhos 42 Snow Slight 0.14 in 0.0 iph
11/22/2014 15:30 Ice Warning 30.6F 32F 32F 5 0% - 97% 0 mhos 38 Snow Slight 0.14 in 0.0 iph
11/22/2014 15:21 Ice Warning 30.6F 32F 32F 5 0% - 97% 0 mhos 38 Snow Slight 0.14 in 0.0 iph
11/22/2014 15:19 Ice Warning 30.6F 32F 32F 5 0% - 97% 0 mhos 37 Snow Slight 0.14 in 0.0 iph
11/22/2014 15:11 Ice Warning 30.0F 32F 32F 25 0% - 98% 0 mhos 34 Snow Slight 0.14 in 0.0 iph
11/22/2014 15:09 Ice Warning 30.0F 32F 32F 20 0% - 98% 0 mhos 34 Snow Slight 0.14 in 0.0 iph
11/22/2014 14:59 Ice Warning 29.8F 32F 32F 50 0% - 99% 0 mhos 31 Snow Slight 0.14 in 0.0 iph
Date/Time
(MST)
Sf
Temp Chem Water Layer Surface Precipitation
Sf Sub Frz Factor Pct Depth IcePct Cond Salin Type Intens Accum Rate
11/22/2014 14:51 Ice Warning 30.4F 32F 32F 85 0% - 98% 0 mhos 28 Snow Slight 0.14 in 0.0 iph
11/22/2014 14:49 Ice Warning 30.6F 32F 32F 80 0% - 98% 0 mhos 27 Snow Slight 0.14 in 0.0 iph
11/22/2014 14:39 Ice Warning 30.9F 32F 32F 95 0% - 98% 0 mhos 24 Snow Slight 0.14 in 0.0 iph
11/22/2014 14:36 Ice Warning 31.1F 32F 32F 95 0% - 97% 0 mhos 21 Snow Slight 0.14 in 0.0 iph
11/22/2014 14:31 Ice Warning 31.1F 32F 32F 95 0% - 97% 0 mhos 22 Snow Slight 0.14 in 0.0 iph
11/22/2014 14:29 Ice Warning 31.3F 32F 32F 95 0% - 96% 0 mhos 24 Snow Slight 0.14 in 0.0 iph
11/22/2014 14:19 Ice Warning 31.6F 32F 32F 95 0% - 89% 0 mhos 44 Snow Slight 0.14 in 0.0 iph
11/22/2014 14:13 Chemically Wet 31.8F 32F 32F 95 0% - 1% 1 mhos 88 Snow Slight 0.14 in 0.0 iph
11/22/2014 14:09 Wet 32.0F 32F 32F 95 1% 0.00 in 0% 2 mhos 198 Snow Slight 0.14 in 0.0 iph
11/22/2014 13:59 Wet 32.2F 32F 32F 95 1% 0.00 in 0% 3 mhos 319 Snow Slight 0.14 in 0.0 iph
11/22/2014 13:51 Wet 32.7F 32F 32F 95 1% 0.00 in 0% 3 mhos 292 Snow Slight 0.14 in 0.0 iph
11/22/2014 13:49 Wet 32.5F 32F 32F 95 1% 0.00 in 0% 2 mhos 239 Snow Slight 0.14 in 0.0 iph
11/22/2014 13:41 Wet 32.5F 32F 32F 95 1% 0.00 in 0% 3 mhos 303 Snow Slight 0.14 in 0.0 iph
11/22/2014 13:39 Wet 32.7F 32F 32F 95 1% 0.00 in 0% 3 mhos 337 Snow Slight 0.14 in 0.0 iph
11/22/2014 13:29 Wet 34.0F 32F 31F 95 2% 0.00 in 0% 4 mhos 463 Snow Slight 0.14 in 0.0 iph
Date/Time
(MST)
Sf
Temp Chem Water Layer Surface Precipitation
Sf Sub Frz Factor Pct Depth IcePct Cond Salin Type Intens Accum Rate
11/22/2014 13:21 Wet 34.7F 32F 32F 95 2% 0.00 in 0% 4 mhos 406 Snow Slight 0.14 in 0.0 iph
11/22/2014 13:19 Wet 34.9F 32F 32F 95 1% 0.00 in 0% 4 mhos 373 Snow Slight 0.14 in 0.0 iph
11/22/2014 13:11 Wet 35.2F 32F 32F 95 1% 0.00 in 0% 3 mhos 338 Snow Slight 0.14 in 0.0 iph
11/22/2014 13:09 Wet 35.8F 32F 32F 95 1% 0.00 in 0% 4 mhos 379 Snow Slight 0.14 in 0.0 iph
11/22/2014 12:59 Wet 36.1F 32F 31F 85 2% 0.00 in 0% 5 mhos 458 Snow Slight 0.14 in 0.0 iph
11/22/2014 12:54 Wet 35.4F 31F 32F 95 2% 0.00 in 0% 4 mhos 397 Snow Slight 0.14 in 0.0 iph
11/22/2014 12:49 Wet 33.8F 32F 32F 95 1% 0.00 in 0% 2 mhos 216 Snow Slight 0.14 in 0.0 iph
11/22/2014 12:41 Wet 32.4F 31F 32F 95 1% 0.00 in 0% 3 mhos 343 Snow Slight 0.14 in 0.0 iph
11/22/2014 12:39 Wet 32.2F 32F 32F 70 1% 0.00 in 0% 3 mhos 299 Snow Slight 0.14 in 0.0 iph
11/22/2014 12:28 Chemically Wet 31.6F 32F 32F 95 1% - 11% 3 mhos 346 Snow Slight 0.14 in 0.0 iph
11/22/2014 12:21 Chemically Wet 31.5F 32F 32F 95 1% - 24% 3 mhos 336 Snow Slight 0.14 in 0.0 iph
11/22/2014 12:18 Chemically Wet 31.3F 32F 32F 95 1% - 48% 3 mhos 365 Snow Slight 0.14 in 0.0 iph
11/22/2014 12:11 Chemically Wet 31.3F 32F 32F 95 1% - 65% 2 mhos 263 Snow Slight 0.14 in 0.0 iph
11/22/2014 12:08 Ice Warning 30.9F 31F 32F 95 1% - 85% 1 mhos 146 Snow Slight 0.14 in 0.0 iph
11/22/2014 11:58 Ice Warning 30.9F 32F 32F 95 0% - 91% 1 mhos 94 Snow Slight 0.14 in 0.0 iph
Date/Time
(MST)
Sf
Temp Chem Water Layer Surface Precipitation
Sf Sub Frz Factor Pct Depth IcePct Cond Salin Type Intens Accum Rate
11/22/2014 11:48 Chemically Wet 31.3F 32F 31F 95 2% - 22% 5 mhos 587 Snow Slight 0.14 in 0.0 iph
11/22/2014 11:41 Chemically Wet 31.1F 31F 31F 95 2% - 39% 5 mhos 522 Snow Slight 0.14 in 0.0 iph
11/22/2014 11:38 Chemically Wet 31.3F 32F 31F 95 2% - 31% 4 mhos 482 Snow Slight 0.14 in 0.0 iph
11/22/2014 11:28 Chemically Wet 31.3F 31F 31F 95 2% - 37% 4 mhos 438 Unidentified Slight 0.14 in 0.0 iph
11/22/2014 11:18 Chemically Wet 31.5F 32F 32F 95 2% - 34% 4 mhos 393 Snow Slight 0.14 in 0.0 iph
11/22/2014 11:11 Chemically Wet 31.3F 32F 32F 95 1% - 54% 3 mhos 322 Snow Slight 0.14 in 0.0 iph
11/22/2014 11:08 Chemically Wet 31.3F 32F 32F 95 1% - 52% 3 mhos 331 Snow Slight 0.14 in 0.0 iph
11/22/2014 10:58 Chemically Wet 31.5F 32F 31F 95 2% 0.00 in 0% 5 mhos 517 Snow Slight 0.14 in 0.0 iph
11/22/2014 10:52 Chemically Wet 31.5F 31F 31F 95 2% 0.00 in 0% 5 mhos 531 Snow Slight 0.14 in 0.0 iph
11/22/2014 10:48 Chemically Wet 31.5F 31F 31F 95 2% 0.00 in 0% 5 mhos 546 Snow Slight 0.14 in 0.0 iph
11/22/2014 10:41 Chemically Wet 31.5F 32F 32F 95 1% - 31% 3 mhos 375 Snow Slight 0.14 in 0.0 iph
11/22/2014 10:38 Chemically Wet 31.5F 32F 32F 95 1% - 21% 3 mhos 348 Snow Slight 0.14 in 0.0 iph
11/22/2014 10:28 Chemically Wet 31.5F 31F 32F 95 1% - 36% 4 mhos 380 Snow Slight 0.14 in 0.0 iph
11/22/2014 10:22 Chemically Wet 31.3F 31F 32F 95 1% - 44% 4 mhos 387 Snow Slight 0.14 in 0.0 iph
11/22/2014 10:18 Chemically Wet 31.3F 32F 31F 95 2% - 34% 4 mhos 456 Snow Slight 0.14 in 0.0 iph
Date/Time
(MST)
Sf
Temp Chem Water Layer Surface Precipitation
Sf Sub Frz Factor Pct Depth IcePct Cond Salin Type Intens Accum Rate
11/22/2014 10:11 Chemically Wet 31.5F 32F 31F 95 2% - 12% 5 mhos 523 Snow Slight 0.14 in 0.0 iph
11/22/2014 10:08 Chemically Wet 31.5F 31F 31F 95 2% - 9% 5 mhos 544 Snow Slight 0.14 in 0.0 iph
11/22/2014 09:57 Chemically Wet 31.3F 31F 32F 95 1% - 47% 3 mhos 367 Snow Slight 0.14 in 0.0 iph
11/22/2014 09:52 Chemically Wet 31.5F 32F 31F 95 2% 0.00 in 0% 6 mhos 638 Snow Slight 0.14 in 0.0 iph
11/22/2014 09:47 Chemically Wet 31.3F 31F 31F 95 2% - 36% 4 mhos 443 Snow Slight 0.14 in 0.0 iph
11/22/2014 09:41 Chemically Wet 31.5F 32F 31F 95 2% 0.00 in 0% 5 mhos 567 Snow Slight 0.14 in 0.0 iph
11/22/2014 09:37 Chemically Wet 31.5F 31F 31F 95 2% - 10% 4 mhos 486 Snow Slight 0.14 in 0.0 iph
11/22/2014 09:27 Chemically Wet 31.5F 32F 32F 95 1% - 54% 2 mhos 251 Snow Slight 0.14 in 0.0 iph
11/22/2014 09:22 Chemically Wet 31.5F 31F 32F 95 1% - 46% 3 mhos 290 Snow Slight 0.14 in 0.0 iph
11/22/2014 09:17 Chemically Wet 31.5F 31F 32F 95 1% - 53% 2 mhos 252 Snow Slight 0.14 in 0.0 iph
11/22/2014 09:11 Chemically Wet 31.5F 31F 32F 95 0% - 85% 1 mhos 84 Snow Slight 0.14 in 0.0 iph
11/22/2014 09:07 Chemically Wet 31.5F 31F 32F 95 0% - 82% 1 mhos 99 Snow Slight 0.14 in 0.0 iph
11/22/2014 08:57 Chemically Wet 31.5F 31F 32F 95 1% - 76% 1 mhos 130 Snow Slight 0.14 in 0.0 iph
11/22/2014 08:51 Ice Warning 31.5F 31F 32F 95 0% - 88% 1 mhos 63 Snow Slight 0.14 in 0.0 iph
11/22/2014 08:47 Ice Warning 31.5F 31F 32F 95 0% - 87% 1 mhos 69 Snow Slight 0.14 in 0.0 iph
Date/Time
(MST)
Sf
Temp Chem Water Layer Surface Precipitation
Sf Sub Frz Factor Pct Depth IcePct Cond Salin Type Intens Accum Rate
11/22/2014 08:40 Ice Warning 31.5F 31F 32F 95 0% - 86% 1 mhos 76 Snow Slight 0.14 in 0.0 iph
11/22/2014 08:37 Chemically Wet 31.5F 32F 32F 95 0% - 84% 1 mhos 73 Snow Slight 0.14 in 0.0 iph
11/22/2014 08:27 Chemically Wet 31.3F 31F 32F 95 1% - 74% 2 mhos 184 Snow Slight 0.14 in 0.0 iph
11/22/2014 08:21 Ice Warning 31.3F 31F 32F 95 0% - 85% 1 mhos 101 Snow Slight 0.14 in 0.0 iph
11/22/2014 08:17 Chemically Wet 31.3F 32F 32F 95 1% - 76% 2 mhos 167 Snow Slight 0.14 in 0.0 iph
11/22/2014 08:11 Ice Warning 31.3F 31F 32F 95 0% - 90% 1 mhos 71 Snow Slight 0.14 in 0.0 iph
11/22/2014 08:07 Ice Warning 31.3F 31F 32F 95 0% - 96% 0 mhos 29 Snow Slight 0.14 in 0.0 iph
11/22/2014 07:57 Chemically Wet 31.3F 31F 31F 95 2% - 16% 5 mhos 584 Snow Slight 0.14 in 0.0 iph
11/22/2014 07:51 Chemically Wet 31.3F 31F 31F 95 3% 0.00 in 0% 7 mhos 713 Snow Slight 0.14 in 0.0 iph
11/22/2014 07:47 Chemically Wet 31.3F 31F 31F 95 3% 0.00 in 0% 7 mhos 723 Snow Slight 0.14 in 0.0 iph
11/22/2014 07:40 Chemically Wet 31.5F 31F 31F 95 4% 0.00 in 0% 9 mhos 975 Snow Slight 0.14 in 0.0 iph
11/22/2014 07:37 Chemically Wet 31.5F 31F 31F 95 3% 0.00 in 0% 7 mhos 789 Snow Slight 0.14 in 0.0 iph
11/22/2014 07:27 Chemically Wet 31.5F 31F 31F 95 3% 0.00 in 0% 7 mhos 742 Snow Slight 0.14 in 0.0 iph
11/22/2014 07:21 Chemically Wet 31.5F 31F 31F 95 4% 0.00 in 0% 9 mhos 946 Snow Slight 0.14 in 0.0 iph
11/22/2014 07:16 Chemically Wet 31.3F 31F 31F 95 4% 0.00 in 0% 10 mhos 1066 Snow Slight 0.14 in 0.0 iph
Date/Time
(MST)
Sf
Temp Chem Water Layer Surface Precipitation
Sf Sub Frz Factor Pct Depth IcePct Cond Salin Type Intens Accum Rate
11/22/2014 07:10 Chemically Wet 30.6F 31F 31F 95 5% - 8% 12 mhos 1351 Snow Slight 0.14 in 0.0 iph
11/22/2014 07:06 Chemically Wet 31.3F 31F 30F 95 6% 0.00 in 0% 15 mhos 1672 Snow Slight 0.14 in 0.0 iph
11/22/2014 06:56 Wet 32.4F 31F 32F 55 0% 0.00 in 0% 0 mhos 0 Snow Slight 0.14 in 0.0 iph
11/22/2014 06:51 Wet 32.4F 31F 32F 5 0% 0.00 in 0% 0 mhos 0 Snow Slight 0.14 in 0.0 iph
11/22/2014 06:46 Wet 32.4F 31F 32F 5 0% 0.00 in 0% 0 mhos 1 Snow Slight 0.14 in 0.0 iph
11/22/2014 06:40 Wet 32.5F 31F 32F 95 0% 0.00 in 0% 0 mhos 4 Snow Slight 0.14 in 0.0 iph
11/22/2014 06:36 Wet 32.9F 31F 32F 95 0% 0.00 in 0% 0 mhos 3 Snow Slight 0.13 in 0.0 iph
11/22/2014 06:26 Wet 33.1F 31F 32F 95 0% 0.00 in 0% 0 mhos 50 Rain Slight 0.13 in 0.0 iph
11/22/2014 06:21 Wet 33.3F 31F 32F 15 0% 0.00 in 0% 0 mhos 47 Rain Slight 0.13 in 0.0 iph
11/22/2014 06:16 Wet 33.4F 31F 32F 35 0% 0.00 in 0% 0 mhos 46 Snow Slight 0.13 in 0.0 iph
11/22/2014 06:11 Wet 33.4F 32F 32F 35 0% 0.00 in 0% 0 mhos 46 Unidentified Slight 0.13 in 0.0 iph
11/22/2014 06:06 Wet 33.4F 32F 32F 40 0% 0.00 in 0% 0 mhos 20 Unidentified Slight 0.13 in 0.0 iph
11/22/2014 05:56 Wet 33.8F 31F 32F 5 0% 0.00 in 0% 0 mhos 6 Rain Slight 0.13 in 0.0 iph
11/22/2014 05:51 Wet 34.0F 31F 32F 5 0% 0.00 in 0% 0 mhos 5 Rain Slight 0.12 in 0.0 iph
11/22/2014 05:46 Wet 34.0F 31F 32F 5 0% 0.00 in 0% 0 mhos 5 Rain Slight 0.12 in 0.0 iph
Date/Time
(MST)
Sf
Temp Chem Water Layer Surface Precipitation
Sf Sub Frz Factor Pct Depth IcePct Cond Salin Type Intens Accum Rate
11/22/2014 05:40 Wet 33.8F 31F 32F 5 0% 0.00 in 0% 0 mhos 7 Unidentified Slight 0.12 in 0.0 iph
11/22/2014 05:36 Wet 33.6F 31F 32F 5 0% 0.00 in 0% 0 mhos 7 Unidentified Slight 0.12 in 0.0 iph
11/22/2014 05:26 Wet 34.2F 31F 32F 5 0% 0.00 in 0% 0 mhos 7 Rain Slight 0.12 in 0.0 iph
11/22/2014 05:21 Wet 34.2F 31F 32F 5 0% 0.00 in 0% 0 mhos 7 Rain Slight 0.12 in 0.0 iph
11/22/2014 05:16 Wet 34.2F 31F 32F 5 0% 0.00 in 0% 0 mhos 7 Rain Slight 0.12 in 0.0 iph
11/22/2014 05:11 Wet 34.2F 32F 32F 5 0% 0.00 in 0% 0 mhos 7 Rain Slight 0.11 in 0.1 iph
11/22/2014 05:06 Wet 34.2F 31F 32F 5 0% 0.00 in 0% 0 mhos 8 Rain Slight 0.11 in 0.0 iph
11/22/2014 04:56 Wet 34.0F 31F 32F 5 0% 0.00 in 0% 0 mhos 9 Unidentified Slight 0.11 in 0.0 iph
11/22/2014 04:51 Wet 34.0F 31F 32F 5 0% 0.00 in 0% 0 mhos 10 Rain Slight 0.11 in 0.0 iph
11/22/2014 04:46 Wet 34.2F 31F 32F 5 0% 0.00 in 0% 0 mhos 11 Rain Slight 0.10 in 0.0 iph
11/22/2014 04:41 Wet 34.2F 31F 32F 5 0% 0.00 in 0% 0 mhos 12 Rain Slight 0.10 in 0.0 iph
11/22/2014 04:36 Wet 34.2F 31F 32F 5 0% 0.00 in 0% 0 mhos 12 Rain Slight 0.09 in 0.0 iph
11/22/2014 04:26 Wet 34.2F 31F 32F 10 0% 0.00 in 0% 0 mhos 10 Rain Slight 0.09 in 0.0 iph
11/22/2014 04:21 Wet 34.2F 31F 32F 5 0% 0.00 in 0% 0 mhos 16 Rain Slight 0.09 in 0.0 iph
11/22/2014 04:16 Wet 34.0F 31F 32F 5 0% 0.00 in 0% 0 mhos 21 Rain Slight 0.08 in 0.0 iph
Date/Time
(MST)
Sf
Temp Chem Water Layer Surface Precipitation
Sf Sub Frz Factor Pct Depth IcePct Cond Salin Type Intens Accum Rate
11/22/2014 04:10 Wet 34.2F 31F 32F 5 0% 0.00 in 0% 0 mhos 25 Rain Slight 0.08 in 0.0 iph
11/22/2014 04:05 Wet 34.2F 31F 32F 5 0% 0.00 in 0% 0 mhos 28 Rain Slight 0.07 in 0.0 iph
11/22/2014 03:55 Wet 34.0F 31F 32F 15 0% 0.00 in 0% 0 mhos 40 Rain Slight 0.07 in 0.0 iph
11/22/2014 03:51 Wet 34.0F 31F 32F 10 0% 0.00 in 0% 0 mhos 43 Rain Slight 0.07 in 0.0 iph
11/22/2014 03:45 Wet 33.8F 31F 32F 10 0% 0.00 in 0% 1 mhos 55 Rain Slight 0.07 in 0.0 iph
11/22/2014 03:40 Wet 33.6F 31F 32F 10 0% 0.00 in 0% 1 mhos 59 Rain Slight 0.07 in 0.0 iph
11/22/2014 03:35 Wet 33.6F 31F 32F 10 0% 0.00 in 0% 1 mhos 64 Rain Slight 0.06 in 0.0 iph
11/22/2014 03:25 Wet 33.1F 32F 32F 10 0% 0.00 in 0% 1 mhos 58 Rain Moderate 0.06 in 0.0 iph
11/22/2014 03:21 Wet 33.1F 31F 32F 20 0% 0.00 in 0% 0 mhos 52 Rain Moderate 0.06 in 0.0 iph
11/22/2014 03:15 Wet 33.1F 31F 32F 15 0% 0.00 in 0% 0 mhos 43 Rain Moderate 0.06 in 0.0 iph
11/22/2014 03:10 Wet 32.9F 31F 32F 10 0% 0.00 in 0% 0 mhos 40 Rain Moderate 0.06 in 0.0 iph
11/22/2014 03:05 Wet 32.4F 31F 32F 10 0% 0.00 in 0% 0 mhos 37 Rain Moderate 0.05 in 0.0 iph
11/22/2014 02:55 Wet 32.2F 31F 32F 10 0% 0.00 in 0% 0 mhos 34 Rain Slight 0.05 in 0.0 iph
11/22/2014 02:51 Wet 32.4F 31F 32F 10 0% 0.00 in 0% 0 mhos 34 Rain Slight 0.05 in 0.0 iph
11/22/2014 02:45 Wet 32.2F 31F 32F 5 0% 0.00 in 0% 0 mhos 34 Rain Slight 0.05 in 0.0 iph
Date/Time
(MST)
Sf
Temp Chem Water Layer Surface Precipitation
Sf Sub Frz Factor Pct Depth IcePct Cond Salin Type Intens Accum Rate
11/22/2014 02:41 Wet 32.4F 31F 32F 10 0% 0.00 in 0% 0 mhos 35 None None 0.05 in 0.0 iph
11/22/2014 02:35 Wet 32.2F 31F 32F 10 0% 0.00 in 0% 0 mhos 37 None None 0.05 in 0.0 iph
11/22/2014 02:25 Wet 32.4F 31F 32F 15 0% 0.00 in 0% 0 mhos 42 Rain Slight 0.05 in 0.0 iph
11/22/2014 02:21 Wet 32.4F 31F 32F 5 0% 0.00 in 0% 0 mhos 43 Rain Slight 0.05 in 0.0 iph
11/22/2014 02:15 Wet 32.4F 31F 32F 15 0% 0.00 in 0% 0 mhos 46 Rain Slight 0.04 in 0.0 iph
11/22/2014 02:11 Wet 32.4F 31F 32F 25 0% 0.00 in 0% 0 mhos 46 Rain Slight 0.04 in 0.0 iph
11/22/2014 02:05 Wet 32.4F 31F 32F 30 0% 0.00 in 0% 1 mhos 53 None None 0.04 in 0.0 iph
11/22/2014 01:55 Wet 32.4F 31F 32F 15 0% 0.00 in 0% 0 mhos 48 Rain Slight 0.04 in 0.0 iph
11/22/2014 01:51 Wet 32.5F 31F 32F 10 0% 0.00 in 0% 1 mhos 61 Rain Slight 0.04 in 0.0 iph
11/22/2014 01:45 Wet 32.7F 31F 32F 20 0% 0.00 in 0% 1 mhos 71 Unidentified Slight 0.04 in 0.0 iph
11/22/2014 01:40 Wet 32.5F 31F 32F 95 0% 0.00 in 0% 1 mhos 87 Snow Slight 0.04 in 0.0 iph
11/22/2014 01:35 Wet 32.7F 31F 32F 85 0% 0.00 in 0% 1 mhos 108 Snow Slight 0.04 in 0.0 iph
11/22/2014 01:25 Wet 33.1F 31F 32F 45 0% 0.00 in 0% 1 mhos 67 Rain Slight 0.03 in 0.0 iph
11/22/2014 01:21 Wet 32.9F 31F 32F 45 0% 0.00 in 0% 0 mhos 52 Rain Slight 0.03 in 0.0 iph
11/22/2014 01:14 Wet 32.0F 31F 32F 50 0% 0.00 in 0% 0 mhos 46 None None 0.03 in 0.0 iph
Date/Time
(MST)
Sf
Temp Chem Water Layer Surface Precipitation
Sf Sub Frz Factor Pct Depth IcePct Cond Salin Type Intens Accum Rate
11/22/2014 01:10 Wet 32.2F 31F 32F 40 0% 0.00 in 0% 0 mhos 45 Rain Slight 0.03 in 0.0 iph
11/22/2014 01:04 Wet 32.2F 31F 32F 35 0% 0.00 in 0% 0 mhos 44 Unidentified Slight 0.03 in 0.0 iph
11/22/2014 00:54 Wet 33.1F 31F 32F 40 0% 0.00 in 0% 0 mhos 35 Snow Slight 0.03 in 0.0 iph
11/22/2014 00:51 Wet 33.3F 31F 32F 45 0% 0.00 in 0% 0 mhos 33 Unidentified Slight 0.03 in 0.0 iph
11/22/2014 00:44 Wet 33.4F 31F 32F 45 0% 0.00 in 0% 0 mhos 29 Snow Slight 0.03 in 0.0 iph
11/22/2014 00:40 Wet 33.6F 31F 32F 45 0% 0.00 in 0% 0 mhos 27 Snow Slight 0.03 in 0.0 iph
11/22/2014 00:34 Wet 33.6F 31F 32F 55 0% 0.00 in 0% 0 mhos 24 Rain Slight 0.03 in 0.0 iph
11/22/2014 00:24 Wet 33.6F 31F 32F 50 0% 0.00 in 0% 0 mhos 20 Snow Slight 0.03 in 0.0 iph
11/22/2014 00:21 Wet 33.8F 31F 32F 45 0% 0.00 in 0% 0 mhos 19 Snow Slight 0.03 in 0.0 iph
11/22/2014 00:14 Wet 34.0F 31F 32F 40 0% 0.00 in 0% 0 mhos 17 Snow Slight 0.03 in 0.0 iph
11/22/2014 00:05 Wet 34.2F 31F 32F 30 0% 0.00 in 0% 0 mhos 17 Rain Slight 0.03 in 0.0 iph
11/22/2014 00:04 Wet 34.2F 31F 32F 30 0% 0.00 in 0% 0 mhos 17 Rain Slight 0.03 in 0.0 iph
11/21/2014 23:54 Wet 34.3F 31F 32F 5 0% 0.00 in 0% 0 mhos 17 Rain Slight 0.03 in 0.0 iph
11/21/2014 23:44 Wet 34.5F 31F 32F 5 0% 0.00 in 0% 0 mhos 18 Rain Slight 0.03 in 0.0 iph
11/21/2014 23:40 Wet 34.5F 31F 32F 5 0% 0.00 in 0% 0 mhos 19 None None 0.03 in 0.0 iph
Date/Time
(MST)
Sf
Temp Chem Water Layer Surface Precipitation
Sf Sub Frz Factor Pct Depth IcePct Cond Salin Type Intens Accum Rate
11/21/2014 23:34 Wet 34.3F 31F 32F 5 0% 0.00 in 0% 0 mhos 19 None None 0.03 in 0.0 iph
11/21/2014 23:24 Wet 34.2F 31F 32F 5 0% 0.00 in 0% 0 mhos 20 None None 0.03 in 0.0 iph
11/21/2014 23:21 Wet 34.2F 31F 32F 5 0% 0.00 in 0% 0 mhos 20 None None 0.03 in 0.0 iph
11/21/2014 23:14 Wet 34.2F 31F 32F 5 0% 0.00 in 0% 0 mhos 21 None None 0.03 in 0.0 iph
11/21/2014 23:10 Wet 34.2F 31F 32F 5 0% 0.00 in 0% 0 mhos 21 Rain Slight 0.03 in 0.0 iph
11/21/2014 23:04 Wet 34.2F 31F 32F 5 0% 0.00 in 0% 0 mhos 21 Rain Slight 0.03 in 0.0 iph
11/21/2014 22:54 Wet 34.3F 31F 32F 5 0% 0.00 in 0% 0 mhos 24 Rain Slight 0.03 in 0.0 iph
11/21/2014 22:51 Wet 34.3F 31F 32F 5 0% 0.00 in 0% 0 mhos 25 None None 0.03 in 0.0 iph
11/21/2014 22:44 Wet 34.2F 31F 32F 5 0% 0.00 in 0% 0 mhos 26 None None 0.03 in 0.0 iph
11/21/2014 22:40 Wet 34.2F 31F 32F 5 0% 0.00 in 0% 0 mhos 27 None None 0.03 in 0.0 iph
11/21/2014 22:33 Wet 34.0F 31F 32F 5 0% 0.00 in 0% 0 mhos 30 None None 0.03 in 0.0 iph
11/21/2014 22:23 Wet 33.8F 31F 32F 5 0% 0.00 in 0% 0 mhos 35 None None 0.03 in 0.0 iph
11/21/2014 22:21 Wet 33.6F 31F 32F 5 0% 0.00 in 0% 0 mhos 37 None None 0.03 in 0.0 iph
11/21/2014 22:13 Wet 33.4F 31F 32F 5 0% 0.00 in 0% 0 mhos 43 None None 0.03 in 0.0 iph
11/21/2014 22:11 Wet 33.3F 31F 32F 5 0% 0.00 in 0% 0 mhos 44 None None 0.03 in 0.0 iph
Date/Time
(MST)
Sf
Temp Chem Water Layer Surface Precipitation
Sf Sub Frz Factor Pct Depth IcePct Cond Salin Type Intens Accum Rate
11/21/2014 22:03 Wet 33.1F 31F 32F 5 0% 0.00 in 0% 0 mhos 52 None None 0.03 in 0.0 iph
11/21/2014 21:53 Wet 33.1F 31F 32F 5 0% 0.00 in 0% 1 mhos 59 None None 0.03 in 0.0 iph
11/21/2014 21:51 Wet 33.1F 31F 32F 5 0% 0.00 in 0% 1 mhos 62 None None 0.03 in 0.0 iph
11/21/2014 21:43 Wet 33.1F 31F 32F 20 0% 0.00 in 0% 1 mhos 68 None None 0.03 in 0.0 iph
11/21/2014 21:41 Wet 33.1F 31F 32F 25 0% 0.00 in 0% 1 mhos 70 None None 0.03 in 0.0 iph
11/21/2014 21:33 Wet 33.1F 31F 32F 30 0% 0.00 in 0% 1 mhos 76 None None 0.03 in 0.0 iph
11/21/2014 21:23 Wet 33.3F 31F 32F 45 0% 0.00 in 0% 1 mhos 84 None None 0.03 in 0.0 iph
11/21/2014 21:21 Wet 33.1F 31F 32F 45 0% 0.00 in 0% 1 mhos 87 None None 0.03 in 0.0 iph
11/21/2014 21:13 Wet 33.3F 31F 32F 40 0% 0.00 in 0% 1 mhos 93 None None 0.03 in 0.0 iph
11/21/2014 21:11 Wet 33.3F 31F 32F 40 0% 0.00 in 0% 1 mhos 95 None None 0.03 in 0.0 iph
11/21/2014 21:03 Wet 33.4F 31F 32F 45 0% 0.00 in 0% 1 mhos 101 None None 0.03 in 0.0 iph
11/21/2014 20:53 Wet 33.3F 31F 32F 55 0% 0.00 in 0% 1 mhos 107 Rain Slight 0.03 in 0.0 iph
11/21/2014 20:51 Wet 33.4F 31F 32F 50 0% 0.00 in 0% 1 mhos 107 Rain Slight 0.03 in 0.0 iph
11/21/2014 20:43 Wet 33.3F 31F 32F 35 0% 0.00 in 0% 1 mhos 121 Rain Slight 0.03 in 0.0 iph
11/21/2014 20:41 Wet 33.3F 31F 32F 45 0% 0.00 in 0% 1 mhos 121 Rain Slight 0.03 in 0.0 iph
Date/Time
(MST)
Sf
Temp Chem Water Layer Surface Precipitation
Sf Sub Frz Factor Pct Depth IcePct Cond Salin Type Intens Accum Rate
11/21/2014 20:33 Wet 33.6F 31F 32F 55 1% 0.00 in 0% 1 mhos 133 Rain Slight 0.03 in 0.0 iph
11/21/2014 20:23 Wet 33.8F 31F 32F 50 1% 0.00 in 0% 1 mhos 136 Rain Slight 0.03 in 0.0 iph
11/21/2014 20:22 Wet 33.8F 31F 32F 50 1% 0.00 in 0% 1 mhos 136 Rain Slight 0.03 in 0.0 iph
11/21/2014 20:13 Wet 34.0F 31F 32F 50 1% 0.00 in 0% 1 mhos 138 Rain Slight 0.03 in 0.0 iph
11/21/2014 20:11 Wet 34.0F 31F 32F 50 1% 0.00 in 0% 1 mhos 137 Rain Slight 0.03 in 0.0 iph
11/21/2014 20:03 Wet 34.0F 31F 32F 60 1% 0.00 in 0% 1 mhos 142 Rain Slight 0.03 in 0.0 iph
11/21/2014 19:53 Wet 34.0F 31F 32F 35 1% 0.00 in 0% 1 mhos 140 Rain Slight 0.03 in 0.0 iph
11/21/2014 19:53 Wet 34.0F 31F 32F 35 1% 0.00 in 0% 1 mhos 140 Rain Slight 0.03 in 0.0 iph
11/21/2014 19:42 Wet 34.2F 31F 32F 50 0% 0.00 in 0% 1 mhos 124 Rain Slight 0.03 in 0.0 iph
11/21/2014 19:41 Wet 34.2F 31F 32F 65 0% 0.00 in 0% 1 mhos 129 Rain Slight 0.03 in 0.0 iph
11/21/2014 19:32 Wet 34.2F 31F 32F 25 1% 0.00 in 0% 1 mhos 131 Rain Slight 0.03 in 0.0 iph
11/21/2014 19:22 Wet 34.0F 31F 32F 80 0% 0.00 in 0% 1 mhos 117 Rain Slight 0.03 in 0.0 iph
11/21/2014 19:21 Wet 34.0F 31F 32F 30 1% 0.00 in 0% 1 mhos 155 Rain Slight 0.03 in 0.0 iph
11/21/2014 19:12 Wet 34.0F 31F 32F 55 1% 0.00 in 0% 1 mhos 146 Rain Slight 0.03 in 0.0 iph
11/21/2014 19:11 Wet 34.0F 31F 32F 50 1% 0.00 in 0% 1 mhos 143 Rain Slight 0.03 in 0.0 iph
Date/Time
(MST)
Sf
Temp Chem Water Layer Surface Precipitation
Sf Sub Frz Factor Pct Depth IcePct Cond Salin Type Intens Accum Rate
11/21/2014 19:02 Wet 34.0F 31F 32F 40 1% 0.00 in 0% 1 mhos 141 Rain Slight 0.03 in 0.0 iph
11/21/2014 18:52 Wet 34.0F 31F 32F 90 1% 0.00 in 0% 1 mhos 138 Rain Slight 0.03 in 0.0 iph
11/21/2014 18:51 Wet 34.0F 31F 32F 55 1% 0.00 in 0% 1 mhos 140 None None 0.03 in 0.0 iph
11/21/2014 18:42 Wet 34.0F 31F 32F 45 1% 0.00 in 0% 1 mhos 143 Unidentified Slight 0.03 in 0.0 iph
11/21/2014 18:40 Wet 34.0F 31F 32F 45 1% 0.00 in 0% 1 mhos 139 Unidentified Slight 0.03 in 0.0 iph
11/21/2014 18:32 Wet 34.0F 31F 32F 45 0% 0.00 in 0% 1 mhos 120 Rain Slight 0.02 in 0.0 iph
11/21/2014 18:22 Wet 34.0F 31F 32F 65 0% 0.00 in 0% 1 mhos 119 Rain Slight 0.02 in 0.0 iph
11/21/2014 18:21 Wet 34.0F 31F 32F 40 0% 0.00 in 0% 1 mhos 119 Rain Slight 0.02 in 0.0 iph
11/21/2014 18:12 Wet 34.0F 31F 32F 45 1% 0.00 in 0% 1 mhos 133 Rain Slight 0.02 in 0.0 iph
11/21/2014 18:11 Wet 34.0F 31F 32F 40 1% 0.00 in 0% 1 mhos 133 Rain Slight 0.02 in 0.0 iph
11/21/2014 18:02 Wet 34.0F 31F 32F 40 0% 0.00 in 0% 1 mhos 116 Rain Slight 0.02 in 0.0 iph
11/21/2014 17:52 Wet 33.8F 31F 32F 25 0% 0.00 in 0% 1 mhos 114 Rain Slight 0.02 in 0.0 iph
11/21/2014 17:51 Wet 34.2F 31F 32F 20 0% 0.00 in 0% 1 mhos 110 Rain Slight 0.02 in 0.0 iph
11/21/2014 17:42 Wet 34.2F 31F 32F 30 0% 0.00 in 0% 1 mhos 121 Rain Slight 0.02 in 0.0 iph
11/21/2014 17:41 Wet 34.2F 31F 32F 35 0% 0.00 in 0% 1 mhos 117 Rain Slight 0.02 in 0.0 iph
Date/Time
(MST)
Sf
Temp Chem Water Layer Surface Precipitation
Sf Sub Frz Factor Pct Depth IcePct Cond Salin Type Intens Accum Rate
11/21/2014 17:32 Wet 34.2F 31F 32F 35 0% 0.00 in 0% 1 mhos 122 Rain Slight 0.02 in 0.0 iph
11/21/2014 17:22 Wet 34.3F 31F 32F 30 1% 0.00 in 0% 1 mhos 140 Rain Slight 0.02 in 0.0 iph
11/21/2014 17:21 Wet 34.3F 31F 32F 30 1% 0.00 in 0% 1 mhos 140 Rain Slight 0.02 in 0.0 iph
11/21/2014 17:12 Wet 34.5F 31F 32F 40 0% 0.00 in 0% 1 mhos 125 Rain Slight 0.02 in 0.0 iph
11/21/2014 17:11 Wet 34.3F 31F 32F 50 0% 0.00 in 0% 1 mhos 125 Rain Slight 0.02 in 0.0 iph
11/21/2014 17:02 Wet 34.7F 31F 32F 40 0% 0.00 in 0% 1 mhos 110 Rain Slight 0.02 in 0.0 iph
11/21/2014 16:52 Wet 34.9F 31F 32F 35 0% 0.00 in 0% 1 mhos 98 Rain Slight 0.02 in 0.0 iph
11/21/2014 16:51 Wet 34.9F 31F 32F 30 0% 0.00 in 0% 1 mhos 97 Rain Slight 0.02 in 0.0 iph
11/21/2014 16:41 Wet 35.2F 31F 32F 30 0% 0.00 in 0% 1 mhos 95 None None 0.02 in 0.0 iph
11/21/2014 16:41 Wet 35.2F 31F 32F 30 0% 0.00 in 0% 1 mhos 93 None None 0.02 in 0.0 iph
Change End Date:
Copyright © 1998-2005 Surface Systems, Inc.
All Rights Reserved
Send comments about the data to:
SCAN Web ® is a registered trademark of Surface Systems, Inc.
SCAN Web Version 5.6